This is the latest recevied weather packets stored in our database for station/object IW2LAO-13. If no packets are shown the sender has not sent any weather packets the latest 10 day(s).
| Time | Temp. | Humidity | Pressure | Rain* | Wind** | Luminosity | Snow |
|---|---|---|---|---|---|---|---|
| 1778240035 | 21.11° C | 56% | 1013.7 hPa | 0 mm | - | 629 W/m² | - |
| 1778238833 | 21.11° C | 58% | 1013.7 hPa | 0 mm | - | 860 W/m² | - |
| 1778234029 | 20° C | 65% | 1014.3 hPa | 0 mm | - | 700 W/m² | - |
| 1778231030 | 19.44° C | 63% | 1014.4 hPa | 0 mm | - | 722 W/m² | - |
| 1778228630 | 17.78° C | 67% | 1014.5 hPa | 0 mm | - | 536 W/m² | - |
| 1778225628 | 16.11° C | 71% | 1014.6 hPa | 0 mm | - | 517 W/m² | - |
| 1778221426 | 13.89° C | 77% | 1014.6 hPa | 0 mm | - | 77 W/m² | - |
| 1778219625 | 12.78° C | 80% | 1014.6 hPa | 0 mm | - | 62 W/m² | - |
| 1778207026 | 12.22° C | 83% | 1014.2 hPa | 0 mm | - | 0 W/m² | - |
| 1778202826 | 11.67° C | 86% | 1014.1 hPa | 0 mm | - | 0 W/m² | - |
| 1778201025 | 11.67° C | 86% | 1014.2 hPa | 0 mm | - | 0 W/m² | - |
| 1778199823 | 12.78° C | 83% | 1014.1 hPa | 0 mm | - | 0 W/m² | - |
| 1778192012 | 13.33° C | 82% | 1014.2 hPa | 0 mm | - | 0 W/m² | - |
| 1778191411 | 13.89° C | 82% | 1014.1 hPa | 0 mm | - | 0 W/m² | - |
| 1778186612 | 15° C | 78% | 1013.4 hPa | 0 mm | - | 0 W/m² | - |
| 1778183011 | 16.67° C | 74% | 1012.6 hPa | 0 mm | - | 0 W/m² | - |
| 1778177008 | 17.78° C | 69% | 1011.4 hPa | 0 mm | - | 14 W/m² | - |
| 1778171603 | 19.44° C | 62% | 1010.5 hPa | 0 mm | - | 357 W/m² | - |
| 1778171003 | 19.44° C | 60% | 1010.5 hPa | 0 mm | - | 135 W/m² | - |
| 1778170402 | 19.44° C | 60% | 1010.5 hPa | 0 mm | - | 141 W/m² | - |
| 1778169201 | 20° C | 58% | 1010.5 hPa | 0 mm | - | 165 W/m² | - |
| 1778168601 | 20° C | 58% | 1010.4 hPa | 0 mm | - | 197 W/m² | - |
| 1778164401 | 20.56° C | 58% | 1010.5 hPa | 0 mm | - | 680 W/m² | - |
| 1778163199 | 20° C | 55% | 1010.8 hPa | 0 mm | - | 738 W/m² | - |
| 1778150595 | 18.89° C | 66% | 1011.6 hPa | 0 mm | - | 478 W/m² | - |
* Rain latest hour (hover to see other rain measurements)
** Current wind speed in m/s (hover to see current wind gust speed)